Corsock Weather Station     55 04' N 3 56' W 114 metres amsl

Latest metar: 222250Z AUTO 10003KT 9999 OVC019 09/07 Q1027

The metar is decoded below

GroupValueNotes
Date + time2250Z on day 22 of monthAll observations are in Zulu UTC
WindWind direction: 100 degrees at 3 ktWind given is 10 minute mean
AUTOAUTOIndicates METAR generated automatically; CB and TCU not reported.
Visibilitymore than 10 kmVisibility less than 5,000m - mist, less than 1,000m - fog
Cloudovercast clouds at 1900 ftFEW 1-2 ocktas, SCT 2-4 ocktas, BKN 5-7 ocktas, OVC 8 ocktas
Temp/Dewpt09/07Prefix M denotes minus value, values rounded to nearest C degree
QNH1027 hPaSea level pressure corrected to ISA

Use back button to return to main menu